createdAt,value
2023-01-21T00:01:00.003Z,81.81
2023-01-21T00:03:26.577Z,82.34
2023-01-21T00:05:53.352Z,82.39
2023-01-21T00:08:19.843Z,82.53
2023-01-21T00:10:46.416Z,82.23
2023-01-21T00:13:12.935Z,82.18
2023-01-21T00:15:39.508Z,82.42
2023-01-21T00:18:07.738Z,81.92
2023-01-21T00:20:34.822Z,81.90
2023-01-21T00:23:01.650Z,82.14
2023-01-21T00:25:28.396Z,81.70
2023-01-21T00:27:55.349Z,82.38
2023-01-21T00:30:22.276Z,82.45
2023-01-21T00:32:49.068Z,82.29
2023-01-21T00:35:15.801Z,82.08
2023-01-21T00:37:42.316Z,82.42
2023-01-21T00:40:09.399Z,82.50
2023-01-21T00:42:35.920Z,82.14
2023-01-21T00:45:02.490Z,82.16
2023-01-21T00:47:28.976Z,82.27
2023-01-21T00:49:55.419Z,82.43
2023-01-21T00:52:21.874Z,82.19
2023-01-21T00:54:48.448Z,81.92
2023-01-21T00:57:15.241Z,82.13
2023-01-21T00:59:42.291Z,82.13
2023-01-21T01:02:10.179Z,82.33
2023-01-21T01:04:36.852Z,81.85
2023-01-21T01:07:03.812Z,82.28
2023-01-21T01:09:30.382Z,82.16
2023-01-21T01:11:56.897Z,81.94
2023-01-21T01:14:23.578Z,82.03
2023-01-21T01:16:50.404Z,81.67
2023-01-21T01:19:17.181Z,81.89
2023-01-21T01:21:43.860Z,82.53
2023-01-21T01:24:10.357Z,82.38
2023-01-21T01:26:41.833Z,82.12
2023-01-21T01:29:12.393Z,82.61
2023-01-21T01:31:39.038Z,82.38
2023-01-21T01:34:06.324Z,82.49
2023-01-21T01:36:32.816Z,82.22
2023-01-21T01:38:59.306Z,81.81
2023-01-21T01:41:29.490Z,81.92
2023-01-21T01:43:58.115Z,82.20
2023-01-21T01:46:28.283Z,81.94
2023-01-21T01:49:02.979Z,82.27
2023-01-21T01:51:50.212Z,81.85
2023-01-21T01:54:22.768Z,81.85
2023-01-21T01:56:54.191Z,81.93
2023-01-21T01:59:21.245Z,82.25
2023-01-21T02:01:48.137Z,81.92
2023-01-21T02:04:20.867Z,82.06
2023-01-21T02:06:48.911Z,82.47
2023-01-21T02:09:15.355Z,82.16
2023-01-21T02:11:41.860Z,81.95
2023-01-21T02:14:08.397Z,82.28
2023-01-21T02:16:47.445Z,81.95
2023-01-21T02:19:28.597Z,82.22
2023-01-21T02:22:16.576Z,81.95
2023-01-21T02:24:58.065Z,82.13
2023-01-21T02:27:43.145Z,82.53
2023-01-21T02:30:37.495Z,82.20
2023-01-21T02:33:39.302Z,82.57
2023-01-21T02:36:35.323Z,82.27
2023-01-21T02:39:30.592Z,82.41
2023-01-21T02:42:13.294Z,82.55
2023-01-21T02:44:43.144Z,82.03
2023-01-21T02:47:16.123Z,82.10
2023-01-21T02:49:47.043Z,82.60
2023-01-21T02:52:22.825Z,82.34
2023-01-21T02:54:55.392Z,82.50
2023-01-21T02:57:36.080Z,81.89
2023-01-21T03:00:10.039Z,81.94
2023-01-21T03:03:09.611Z,82.71
2023-01-21T03:05:57.801Z,82.26
2023-01-21T03:08:50.939Z,82.13
2023-01-21T03:11:22.045Z,82.24
2023-01-21T03:14:17.635Z,82.05
2023-01-21T03:16:57.683Z,82.29
2023-01-21T03:19:39.414Z,82.33
2023-01-21T03:22:15.162Z,82.52
2023-01-21T03:24:45.345Z,82.86
2023-01-21T03:27:16.788Z,82.55
2023-01-21T03:29:46.576Z,82.54
2023-01-21T03:32:16.574Z,82.23
2023-01-21T03:34:50.845Z,82.41
2023-01-21T03:37:17.299Z,82.27
2023-01-21T03:39:47.598Z,82.30
2023-01-21T03:42:15.623Z,82.26
2023-01-21T03:44:45.949Z,82.44
2023-01-21T03:47:23.725Z,82.26
2023-01-21T03:50:13.849Z,82.05
2023-01-21T03:52:43.069Z,81.95
2023-01-21T03:55:12.138Z,81.68
2023-01-21T03:57:38.703Z,82.01
2023-01-21T04:00:06.493Z,81.90
2023-01-21T04:02:33.355Z,81.89
2023-01-21T04:04:59.925Z,81.69
2023-01-21T04:07:26.644Z,82.25
2023-01-21T04:09:53.177Z,82.28
2023-01-21T04:12:19.746Z,82.01
2023-01-21T04:14:46.236Z,82.25
2023-01-21T04:17:12.750Z,82.17
2023-01-21T04:19:39.225Z,81.88
2023-01-21T04:22:05.707Z,82.48
2023-01-21T04:24:34.590Z,82.36
2023-01-21T04:27:01.265Z,82.21
2023-01-21T04:29:27.763Z,82.75
2023-01-21T04:31:54.338Z,82.73
2023-01-21T04:34:20.869Z,82.56
2023-01-21T04:37:00.906Z,82.40
2023-01-21T04:39:27.572Z,82.51
2023-01-21T04:41:54.038Z,82.50
2023-01-21T04:44:20.490Z,82.39
2023-01-21T04:46:47.292Z,82.18
2023-01-21T04:49:13.768Z,82.19
2023-01-21T04:51:40.721Z,82.35
2023-01-21T04:54:07.223Z,81.90
2023-01-21T04:56:33.649Z,82.08
2023-01-21T04:59:00.156Z,82.86
2023-01-21T05:01:26.631Z,82.57
2023-01-21T05:03:53.621Z,82.88
2023-01-21T05:06:20.104Z,82.81
2023-01-21T05:08:46.767Z,82.92
2023-01-21T05:11:19.293Z,83.12
2023-01-21T05:13:46.078Z,82.96
2023-01-21T05:16:14.332Z,83.24
2023-01-21T05:18:41.420Z,82.94
2023-01-21T05:21:08.879Z,83.39
2023-01-21T05:23:35.447Z,83.53
2023-01-21T05:26:02.123Z,83.51
2023-01-21T05:28:28.587Z,83.38
2023-01-21T05:30:55.168Z,83.41
2023-01-21T05:33:26.292Z,83.38
2023-01-21T05:35:52.894Z,83.40
2023-01-21T05:38:19.815Z,83.38
2023-01-21T05:40:46.376Z,83.64
2023-01-21T05:43:12.977Z,83.76
2023-01-21T05:45:39.473Z,83.54
2023-01-21T05:48:06.169Z,84.21
2023-01-21T05:50:32.687Z,84.02
2023-01-21T05:52:59.289Z,83.89
2023-01-21T05:55:25.808Z,83.74
2023-01-21T05:57:52.321Z,83.93
2023-01-21T06:00:19.563Z,84.04
2023-01-21T06:02:46.237Z,83.88
2023-01-21T06:05:12.828Z,83.90
2023-01-21T06:07:39.282Z,83.13
2023-01-21T06:10:06.439Z,83.04
2023-01-21T06:12:33.164Z,83.57
2023-01-21T06:15:00.492Z,83.37
2023-01-21T06:17:26.956Z,82.91
2023-01-21T06:19:53.702Z,82.72
2023-01-21T06:22:20.479Z,82.35
2023-01-21T06:24:46.966Z,82.88
2023-01-21T06:27:13.455Z,82.61
2023-01-21T06:29:39.931Z,82.55
2023-01-21T06:32:06.716Z,82.32
2023-01-21T06:34:33.283Z,82.47
2023-01-21T06:36:59.862Z,82.10
2023-01-21T06:39:26.360Z,82.22
2023-01-21T06:41:55.088Z,81.94
2023-01-21T06:44:21.925Z,81.77
2023-01-21T06:47:00.139Z,81.59
2023-01-21T06:49:27.122Z,82.13
2023-01-21T06:51:53.896Z,82.03
2023-01-21T06:54:20.382Z,82.74
2023-01-21T06:56:47.693Z,82.39
2023-01-21T06:59:14.251Z,82.60
2023-01-21T07:01:40.753Z,82.39
2023-01-21T07:04:07.287Z,82.40
2023-01-21T07:06:33.794Z,82.26
2023-01-21T07:09:00.349Z,82.74
2023-01-21T07:11:26.819Z,82.90
2023-01-21T07:13:53.284Z,82.66
2023-01-21T07:16:19.873Z,82.46
2023-01-21T07:18:46.454Z,82.34
2023-01-21T07:21:13.225Z,82.40
2023-01-21T07:23:39.735Z,82.69
2023-01-21T07:26:06.575Z,82.89
2023-01-21T07:28:33.363Z,83.13
2023-01-21T07:31:01.029Z,83.23
2023-01-21T07:33:27.956Z,83.64
2023-01-21T07:35:54.871Z,83.52
2023-01-21T07:38:21.722Z,83.65
2023-01-21T07:40:49.387Z,83.90
2023-01-21T07:43:16.534Z,83.78
2023-01-21T07:45:43.663Z,84.05
2023-01-21T07:48:10.993Z,83.79
2023-01-21T07:50:37.543Z,83.78
2023-01-21T07:53:04.755Z,84.25
2023-01-21T07:55:31.386Z,83.82
2023-01-21T07:57:58.663Z,83.89
2023-01-21T08:00:27.191Z,84.33
2023-01-21T08:02:55.180Z,84.01
2023-01-21T08:05:23.549Z,83.90
2023-01-21T08:07:50.646Z,83.18
2023-01-21T08:10:18.528Z,83.54
2023-01-21T08:12:45.509Z,83.25
2023-01-21T08:15:12.303Z,83.17
2023-01-21T08:17:40.032Z,83.42
2023-01-21T08:20:08.091Z,83.20
2023-01-21T08:22:34.552Z,83.43
2023-01-21T08:25:01.100Z,83.32
2023-01-21T08:27:27.860Z,82.89
2023-01-21T08:29:54.314Z,83.29
2023-01-21T08:32:20.842Z,84.13
2023-01-21T08:34:47.296Z,84.55
2023-01-21T08:37:13.827Z,85.16
2023-01-21T08:39:40.780Z,84.85
2023-01-21T08:42:07.312Z,84.11
2023-01-21T08:44:35.605Z,83.42
2023-01-21T08:47:02.187Z,83.11
2023-01-21T08:49:28.672Z,82.88
2023-01-21T08:51:55.320Z,83.40
2023-01-21T08:54:21.818Z,83.51
2023-01-21T08:56:48.328Z,83.35
2023-01-21T08:59:14.974Z,82.92
2023-01-21T09:01:41.457Z,82.91
2023-01-21T09:04:09.232Z,83.12
2023-01-21T09:06:36.552Z,83.10
2023-01-21T09:09:03.136Z,82.97
2023-01-21T09:11:30.649Z,82.09
2023-01-21T09:14:00.637Z,82.64
2023-01-21T09:16:27.193Z,82.64
2023-01-21T09:18:53.885Z,82.83
2023-01-21T09:21:20.359Z,82.84
2023-01-21T09:23:47.056Z,82.25
2023-01-21T09:26:18.818Z,82.44
2023-01-21T09:28:47.829Z,82.80
2023-01-21T09:31:16.806Z,82.63
2023-01-21T09:33:46.550Z,82.24
2023-01-21T09:36:16.328Z,82.59
2023-01-21T09:38:44.035Z,82.44
2023-01-21T09:41:30.939Z,82.62
2023-01-21T09:44:03.807Z,82.79
2023-01-21T09:46:45.791Z,83.14
2023-01-21T09:49:24.472Z,83.21
2023-01-21T09:52:03.492Z,83.15
2023-01-21T09:54:36.162Z,83.99
2023-01-21T09:57:41.362Z,83.65
2023-01-21T10:00:25.699Z,83.46
2023-01-21T10:02:56.264Z,83.42
2023-01-21T10:05:54.026Z,83.80
2023-01-21T10:08:20.452Z,83.77
2023-01-21T10:10:58.707Z,83.77
2023-01-21T10:13:42.605Z,83.94
2023-01-21T10:16:14.734Z,84.11
2023-01-21T10:18:45.572Z,84.43
2023-01-21T10:21:34.222Z,84.49
2023-01-21T10:24:11.614Z,84.27
2023-01-21T10:26:38.106Z,84.51
2023-01-21T10:29:04.889Z,84.14
2023-01-21T10:31:42.161Z,83.72
2023-01-21T10:34:18.253Z,84.31
2023-01-21T10:36:54.037Z,84.19
2023-01-21T10:39:28.912Z,84.29
2023-01-21T10:42:04.895Z,84.02
2023-01-21T10:44:46.738Z,83.92
2023-01-21T10:47:29.077Z,83.96
2023-01-21T10:50:16.623Z,83.98
2023-01-21T10:52:55.559Z,84.31
2023-01-21T10:56:07.613Z,84.77
2023-01-21T10:58:45.584Z,84.45
2023-01-21T11:01:22.178Z,84.42
2023-01-21T11:03:53.503Z,84.23
2023-01-21T11:06:23.059Z,83.97
2023-01-21T11:08:54.444Z,83.95
2023-01-21T11:11:30.656Z,84.36
2023-01-21T11:13:57.204Z,84.74
2023-01-21T11:16:43.471Z,84.62
2023-01-21T11:19:16.697Z,84.44
2023-01-21T11:22:05.219Z,84.30
2023-01-21T11:24:42.444Z,84.10
2023-01-21T11:27:21.414Z,83.77
2023-01-21T11:29:49.271Z,83.54
2023-01-21T11:32:19.766Z,83.33
2023-01-21T11:34:48.362Z,82.62
2023-01-21T11:37:26.920Z,82.59
2023-01-21T11:40:08.856Z,82.57
2023-01-21T11:42:48.595Z,82.69
2023-01-21T11:45:36.716Z,81.81
2023-01-21T11:48:20.771Z,81.90
2023-01-21T11:50:48.134Z,81.64
2023-01-21T11:53:15.531Z,81.22
2023-01-21T11:55:46.191Z,80.91
2023-01-21T11:58:24.003Z,80.93
2023-01-21T12:00:54.310Z,80.74
2023-01-21T12:03:24.958Z,80.99
2023-01-21T12:05:53.229Z,80.68
2023-01-21T12:08:29.926Z,80.38
2023-01-21T12:10:59.564Z,80.73
2023-01-21T12:13:58.142Z,80.68
2023-01-21T12:16:37.786Z,79.73
2023-01-21T12:19:40.247Z,79.95
2023-01-21T12:22:37.693Z,79.88
2023-01-21T12:25:13.161Z,80.04
2023-01-21T12:27:58.381Z,80.15
2023-01-21T12:30:58.503Z,79.52
2023-01-21T12:33:30.801Z,80.03
2023-01-21T12:36:26.186Z,80.34
2023-01-21T12:39:06.578Z,79.99
2023-01-21T12:41:34.638Z,80.21
2023-01-21T12:44:17.458Z,80.66
2023-01-21T12:46:48.989Z,80.35
2023-01-21T12:49:25.294Z,80.48
2023-01-21T12:52:02.978Z,80.74
2023-01-21T12:54:40.555Z,80.55
2023-01-21T12:57:17.004Z,80.57
2023-01-21T12:59:55.327Z,80.99
2023-01-21T13:02:25.291Z,80.36
2023-01-21T13:05:17.043Z,80.33
2023-01-21T13:07:52.971Z,79.91
2023-01-21T13:10:39.101Z,79.85
2023-01-21T13:13:19.585Z,80.79
2023-01-21T13:15:50.966Z,80.13
2023-01-21T13:18:28.030Z,80.18
2023-01-21T13:21:00.984Z,80.02
2023-01-21T13:23:49.258Z,80.02
2023-01-21T13:26:32.639Z,80.01
2023-01-21T13:29:14.078Z,79.16
2023-01-21T13:31:48.815Z,79.18
2023-01-21T13:34:21.413Z,79.43
2023-01-21T13:37:01.181Z,79.53
2023-01-21T13:39:49.756Z,79.50
2023-01-21T13:42:22.653Z,79.97
2023-01-21T13:44:55.133Z,79.85
2023-01-21T13:47:30.579Z,79.99
2023-01-21T13:50:39.044Z,79.80
2023-01-21T13:53:08.318Z,80.00
2023-01-21T13:55:53.945Z,80.29
2023-01-21T13:58:37.668Z,79.59
2023-01-21T14:01:14.557Z,79.64
2023-01-21T14:04:10.143Z,80.03
2023-01-21T14:07:01.717Z,79.55
2023-01-21T14:09:43.465Z,79.67
2023-01-21T14:12:15.717Z,79.36
2023-01-21T14:14:57.875Z,79.50
2023-01-21T14:18:05.274Z,79.19
2023-01-21T14:21:10.228Z,78.94
2023-01-21T14:23:50.720Z,77.98
2023-01-21T14:26:26.250Z,78.01
2023-01-21T14:29:11.444Z,76.73
2023-01-21T14:31:53.255Z,76.30
2023-01-21T14:34:42.044Z,75.72
2023-01-21T14:37:43.842Z,76.23
2023-01-21T14:40:29.262Z,75.36
2023-01-21T14:42:56.307Z,74.49
2023-01-21T14:45:52.739Z,74.06
2023-01-21T14:48:29.263Z,73.22
2023-01-21T14:51:10.317Z,72.61
2023-01-21T14:53:51.580Z,72.93
2023-01-21T14:56:34.922Z,72.93
2023-01-21T14:59:04.809Z,73.14
2023-01-21T15:01:39.481Z,72.71
2023-01-21T15:04:19.234Z,72.55
2023-01-21T15:06:45.975Z,72.39
2023-01-21T15:09:22.647Z,72.69
2023-01-21T15:11:56.424Z,72.76
2023-01-21T15:14:26.560Z,72.33
2023-01-21T15:16:53.349Z,72.36
2023-01-21T15:19:24.098Z,72.56
2023-01-21T15:21:59.557Z,72.34
2023-01-21T15:24:30.548Z,72.67
2023-01-21T15:27:15.523Z,72.74
2023-01-21T15:30:05.919Z,72.87
2023-01-21T15:32:50.175Z,72.73
2023-01-21T15:35:25.243Z,72.79
2023-01-21T15:37:59.187Z,72.56
2023-01-21T15:40:28.841Z,72.99
2023-01-21T15:43:00.658Z,73.19
2023-01-21T15:45:27.081Z,73.19
2023-01-21T15:48:36.390Z,73.15
2023-01-21T15:51:31.594Z,72.43
2023-01-21T15:54:13.127Z,71.07
2023-01-21T15:57:16.799Z,70.55
2023-01-21T16:00:07.341Z,70.37
2023-01-21T16:02:50.666Z,70.46
2023-01-21T16:05:38.853Z,70.73
2023-01-21T16:08:24.654Z,70.67
2023-01-21T16:11:03.895Z,71.26
2023-01-21T16:13:51.360Z,71.18
2023-01-21T16:16:43.767Z,71.51
2023-01-21T16:19:14.776Z,71.59
2023-01-21T16:21:45.664Z,71.78
2023-01-21T16:24:19.028Z,71.83
2023-01-21T16:26:45.916Z,71.49
2023-01-21T16:29:14.801Z,71.67
2023-01-21T16:31:52.380Z,70.41
2023-01-21T16:34:39.044Z,70.13
2023-01-21T16:37:06.503Z,69.82
2023-01-21T16:39:33.616Z,69.15
2023-01-21T16:42:02.980Z,69.29
2023-01-21T16:44:32.084Z,69.27
2023-01-21T16:47:00.531Z,68.48
2023-01-21T16:49:27.530Z,68.72
2023-01-21T16:52:00.402Z,68.14
2023-01-21T16:54:33.912Z,67.86
2023-01-21T16:57:02.912Z,67.76
2023-01-21T16:59:44.067Z,67.85
2023-01-21T17:02:28.156Z,67.62
2023-01-21T17:04:57.798Z,68.19
2023-01-21T17:07:43.924Z,68.49
2023-01-21T17:10:24.584Z,68.75
2023-01-21T17:13:00.566Z,68.69
2023-01-21T17:15:43.408Z,68.96
2023-01-21T17:18:38.049Z,68.97
2023-01-21T17:21:14.999Z,69.27
2023-01-21T17:23:56.980Z,69.85
2023-01-21T17:26:29.563Z,69.66
2023-01-21T17:29:03.271Z,70.08
2023-01-21T17:31:44.995Z,70.33
2023-01-21T17:34:39.210Z,70.73
2023-01-21T17:37:51.552Z,70.76
2023-01-21T17:40:45.097Z,70.96
2023-01-21T17:46:19.355Z,70.78
2023-01-21T17:48:49.480Z,70.98
2023-01-21T17:51:19.425Z,71.02
2023-01-21T17:54:02.106Z,71.53
2023-01-21T17:56:50.117Z,71.43
2023-01-21T17:59:28.811Z,71.78
2023-01-21T18:01:57.387Z,71.99
2023-01-21T18:04:26.773Z,72.66
2023-01-21T18:06:54.756Z,72.90
2023-01-21T18:09:24.568Z,72.93
2023-01-21T18:11:59.968Z,72.53
2023-01-21T18:14:51.307Z,72.91
2023-01-21T18:17:20.967Z,72.96
2023-01-21T18:19:47.494Z,73.21
2023-01-21T18:22:22.541Z,73.24
2023-01-21T18:24:51.551Z,73.25
2023-01-21T18:27:18.672Z,73.57
2023-01-21T18:29:45.276Z,73.57
2023-01-21T18:32:17.601Z,73.49
2023-01-21T18:34:48.009Z,73.71
2023-01-21T18:37:21.374Z,73.88
2023-01-21T18:39:49.246Z,74.01
2023-01-21T18:42:18.130Z,74.32
2023-01-21T18:44:45.561Z,74.46
2023-01-21T18:47:17.223Z,74.44
2023-01-21T18:49:44.903Z,74.79
2023-01-21T18:52:19.541Z,74.95
2023-01-21T18:54:46.735Z,74.79
2023-01-21T18:57:20.421Z,74.50
2023-01-21T18:59:49.891Z,75.07
2023-01-21T19:02:25.218Z,75.15
2023-01-21T19:04:52.890Z,75.01
2023-01-21T19:07:21.450Z,75.33
2023-01-21T19:09:52.856Z,75.30
2023-01-21T19:12:24.392Z,75.51
2023-01-21T19:14:51.060Z,76.04
2023-01-21T19:17:26.466Z,76.30
2023-01-21T19:19:53.994Z,76.98
2023-01-21T19:22:20.757Z,77.52
2023-01-21T19:24:49.733Z,77.96
2023-01-21T19:27:26.706Z,78.31
2023-01-21T19:29:58.914Z,78.90
2023-01-21T19:32:25.863Z,79.29
2023-01-21T19:35:00.188Z,79.24
2023-01-21T19:37:33.217Z,79.61
2023-01-21T19:40:13.100Z,79.61
2023-01-21T19:42:41.872Z,80.70
2023-01-21T19:45:21.004Z,81.36
2023-01-21T19:47:53.366Z,81.81
2023-01-21T19:50:23.040Z,81.80
2023-01-21T19:52:51.461Z,81.84
2023-01-21T19:55:26.664Z,82.78
2023-01-21T19:58:19.887Z,82.92
2023-01-21T20:00:52.522Z,83.27
2023-01-21T20:03:25.070Z,83.81
2023-01-21T20:06:01.625Z,83.66
2023-01-21T20:08:30.626Z,83.57
2023-01-21T20:11:17.428Z,84.42
2023-01-21T20:13:43.993Z,84.55
2023-01-21T20:16:16.785Z,84.82
2023-01-21T20:18:49.019Z,84.34
2023-01-21T20:21:16.537Z,84.83
2023-01-21T20:23:43.507Z,84.78
2023-01-21T20:26:24.044Z,85.28
2023-01-21T20:28:52.562Z,85.28
2023-01-21T20:31:19.457Z,85.13
2023-01-21T20:33:46.644Z,85.42
2023-01-21T20:36:25.238Z,85.72
2023-01-21T20:38:58.409Z,85.33
2023-01-21T20:41:28.466Z,85.29
2023-01-21T20:43:55.136Z,85.39
2023-01-21T20:46:27.154Z,85.35
2023-01-21T20:48:54.099Z,85.69
2023-01-21T20:51:21.464Z,85.51
2023-01-21T20:53:48.371Z,85.73
2023-01-21T20:56:33.234Z,85.45
2023-01-21T20:59:10.059Z,85.66
2023-01-21T21:01:39.533Z,85.50
2023-01-21T21:04:09.214Z,85.66
2023-01-21T21:06:40.546Z,85.44
2023-01-21T21:09:07.286Z,85.89
2023-01-21T21:11:41.152Z,85.69
2023-01-21T21:14:08.313Z,85.35
2023-01-21T21:16:39.541Z,85.39
2023-01-21T21:19:12.547Z,85.57
2023-01-21T21:21:39.292Z,85.33
2023-01-21T21:24:26.892Z,85.61
2023-01-21T21:26:56.492Z,85.46
2023-01-21T21:29:34.599Z,85.33
2023-01-21T21:32:07.203Z,85.67
2023-01-21T21:34:56.869Z,85.57
2023-01-21T21:37:21.907Z,85.23
2023-01-21T21:39:51.569Z,85.62
2023-01-21T21:42:36.767Z,85.95
2023-01-21T21:45:05.811Z,85.62
2023-01-21T21:47:51.085Z,86.08
2023-01-21T21:50:18.117Z,86.02
2023-01-21T21:52:55.531Z,85.90
2023-01-21T21:55:25.461Z,86.11
2023-01-21T21:57:59.356Z,85.94
2023-01-21T22:00:30.994Z,86.29
2023-01-21T22:03:02.400Z,85.98
2023-01-21T22:05:46.616Z,86.04
2023-01-21T22:08:18.775Z,86.54
2023-01-21T22:11:00.012Z,86.43
2023-01-21T22:13:32.993Z,86.06
2023-01-21T22:16:00.976Z,86.13
2023-01-21T22:18:31.976Z,86.31
2023-01-21T22:21:15.326Z,86.57
2023-01-21T22:23:59.324Z,86.46
2023-01-21T22:26:41.143Z,86.98
2023-01-21T22:29:15.366Z,86.64
2023-01-21T22:31:44.682Z,86.72
2023-01-21T22:34:15.611Z,86.56
2023-01-21T22:36:57.711Z,86.76
2023-01-21T22:39:25.968Z,86.44
2023-01-21T22:41:55.291Z,86.62
2023-01-21T22:44:24.559Z,86.74
2023-01-21T22:46:55.849Z,86.59
2023-01-21T22:49:28.616Z,86.43
2023-01-21T22:51:55.369Z,86.32
2023-01-21T22:54:22.051Z,86.45
2023-01-21T22:56:52.526Z,86.48
2023-01-21T22:59:19.997Z,86.52
2023-01-21T23:01:48.666Z,86.42
2023-01-21T23:04:16.285Z,86.42
2023-01-21T23:06:44.806Z,86.62
2023-01-21T23:09:15.659Z,86.44
2023-01-21T23:11:42.528Z,86.53
2023-01-21T23:14:10.138Z,86.89
2023-01-21T23:16:36.780Z,86.61
2023-01-21T23:19:03.549Z,86.67
2023-01-21T23:21:30.384Z,86.77
2023-01-21T23:23:56.927Z,86.91
2023-01-21T23:26:23.740Z,87.06
2023-01-21T23:28:56.011Z,87.24
2023-01-21T23:31:23.308Z,87.56
2023-01-21T23:33:51.367Z,87.31
2023-01-21T23:36:31.733Z,87.13
2023-01-21T23:38:58.264Z,87.13
2023-01-21T23:41:24.814Z,86.99
2023-01-21T23:43:51.339Z,87.21
2023-01-21T23:46:19.809Z,87.31
2023-01-21T23:48:46.602Z,87.06
2023-01-21T23:51:14.705Z,87.07
2023-01-21T23:53:41.257Z,87.13
2023-01-21T23:56:14.784Z,86.70
2023-01-21T23:58:41.346Z,87.04
